createdAt,value
2023-02-22T00:00:11.611Z,30.90
2023-02-22T00:01:38.128Z,28.27
2023-02-22T00:03:00.419Z,25.92
2023-02-22T00:06:21.671Z,23.75
2023-02-22T00:07:47.635Z,26.38
2023-02-22T00:09:21.524Z,29.85
2023-02-22T00:10:52.961Z,26.67
2023-02-22T00:12:15.966Z,31.30
2023-02-22T00:13:39.217Z,32.30
2023-02-22T00:15:00.949Z,31.40
2023-02-22T00:16:34.263Z,28.88
2023-02-22T00:17:57.553Z,33.63
2023-02-22T00:19:35.554Z,39.15
2023-02-22T00:21:04.177Z,28.67
2023-02-22T00:22:27.187Z,25.42
2023-02-22T00:23:56.918Z,36.58
2023-02-22T00:25:23.163Z,28.98
2023-02-22T00:26:48.655Z,31.00
2023-02-22T00:29:04.650Z,28.08
2023-02-22T00:31:17.677Z,38.42
2023-02-22T00:33:29.802Z,25.92
2023-02-22T00:35:57.869Z,31.33
2023-02-22T00:47:26.132Z,32.90
2023-02-22T00:50:40.525Z,21.50
2023-02-22T00:50:49.022Z,30.48
2023-02-22T00:52:11.231Z,26.33
2023-02-22T00:53:50.344Z,30.73
2023-02-22T00:58:01.156Z,27.17
2023-02-22T01:02:15.677Z,22.90
2023-02-22T01:03:48.764Z,34.03
2023-02-22T01:05:18.900Z,28.20
2023-02-22T01:06:47.603Z,24.00
2023-02-22T01:08:35.917Z,29.40
2023-02-22T01:10:47.891Z,28.58
2023-02-22T01:13:00.080Z,29.77
2023-02-22T01:14:34.041Z,27.88
2023-02-22T01:16:27.157Z,28.05
2023-02-22T01:18:12.868Z,34.25
2023-02-22T01:19:34.255Z,29.98
2023-02-22T01:21:05.354Z,27.23
2023-02-22T01:22:43.070Z,38.97
2023-02-22T01:28:13.847Z,28.35
2023-02-22T01:35:01.582Z,29.98
2023-02-22T01:36:24.159Z,30.02
2023-02-22T01:37:45.333Z,28.25
2023-02-22T12:26:23.214Z,27.75
2023-02-22T12:27:57.506Z,23.88
2023-02-22T12:29:37.892Z,24.80
2023-02-22T12:31:12.542Z,28.35
2023-02-22T12:32:45.800Z,32.65
2023-02-22T12:34:49.456Z,27.08
2023-02-22T12:36:35.924Z,26.13
2023-02-22T12:38:21.262Z,31.73
2023-02-22T15:09:48.018Z,27.65
2023-02-22T15:11:52.059Z,25.25
2023-02-22T15:13:44.197Z,17.73
2023-02-22T15:18:36.743Z,20.50
2023-02-22T15:27:00.839Z,24.67
2023-02-22T15:29:34.357Z,37.97
2023-02-22T15:34:55.590Z,35.33
2023-02-22T15:55:08.728Z,21.13
2023-02-22T15:56:35.168Z,21.52
2023-02-22T15:58:01.806Z,22.20
2023-02-22T15:59:32.217Z,27.50
2023-02-22T16:01:04.954Z,31.25
2023-02-22T16:02:37.205Z,25.20
2023-02-22T16:05:33.425Z,25.08
2023-02-22T16:07:07.130Z,21.00
2023-02-22T16:08:53.964Z,22.83
2023-02-22T16:10:34.865Z,17.40
2023-02-22T16:12:12.676Z,23.20
2023-02-22T16:13:37.264Z,23.90
2023-02-22T16:15:00.704Z,23.08
2023-02-22T16:16:27.755Z,24.08
2023-02-22T16:18:01.682Z,18.45
2023-02-22T16:19:40.747Z,22.45
2023-02-22T16:21:13.218Z,24.63
2023-02-22T16:22:49.504Z,21.15
2023-02-22T16:24:44.415Z,26.55
2023-02-22T16:26:26.048Z,26.63
2023-02-22T16:28:00.267Z,24.30
2023-02-22T16:29:30.055Z,24.73
2023-02-22T16:30:57.993Z,20.58
2023-02-22T16:32:37.977Z,23.25
2023-02-22T16:34:05.047Z,31.60
2023-02-22T16:35:29.869Z,26.40
2023-02-22T16:36:53.101Z,20.77
2023-02-22T16:38:51.594Z,19.88
2023-02-22T16:41:12.774Z,23.15
2023-02-22T16:42:35.481Z,17.45
2023-02-22T16:43:58.124Z,19.08
2023-02-22T16:45:36.988Z,24.85
2023-02-22T16:47:12.961Z,19.10
2023-02-22T16:48:38.571Z,17.60
2023-02-22T16:50:04.391Z,20.52
2023-02-22T16:51:31.212Z,21.45
2023-02-22T16:52:59.842Z,23.10
2023-02-22T16:54:27.187Z,26.27
2023-02-22T16:56:03.897Z,25.27
2023-02-22T16:57:29.216Z,28.67
2023-02-22T16:58:54.976Z,21.25
2023-02-22T17:00:31.461Z,22.02
2023-02-22T17:01:55.425Z,30.00
2023-02-22T17:03:20.599Z,21.95
2023-02-22T17:04:49.924Z,20.70
2023-02-22T17:07:44.874Z,24.55
2023-02-22T17:09:09.611Z,24.35
2023-02-22T17:10:32.581Z,20.67
2023-02-22T17:12:04.074Z,26.60
2023-02-22T17:13:33.033Z,23.73
2023-02-22T17:14:55.280Z,22.30
2023-02-22T17:16:18.099Z,23.40
2023-02-22T17:17:41.011Z,25.90
2023-02-22T17:19:05.038Z,23.88
2023-02-22T17:20:31.568Z,26.42
2023-02-22T17:21:53.849Z,30.27
2023-02-22T17:23:17.490Z,25.92
2023-02-22T17:24:42.656Z,24.40
2023-02-22T17:26:05.424Z,27.42
2023-02-22T17:27:29.268Z,22.85
2023-02-22T17:28:54.193Z,28.63
2023-02-22T17:30:30.408Z,29.52
2023-02-22T17:31:58.742Z,23.92
2023-02-22T17:33:27.461Z,25.42
2023-02-22T17:34:52.403Z,25.98
2023-02-22T17:36:28.792Z,28.48
2023-02-22T17:37:54.477Z,27.20
2023-02-22T17:39:28.732Z,27.58
2023-02-22T17:40:55.748Z,26.42
2023-02-22T17:42:18.547Z,27.27
2023-02-22T17:43:44.316Z,23.52
2023-02-22T17:45:06.198Z,25.63
2023-02-22T17:46:29.066Z,26.08
2023-02-22T17:48:03.339Z,28.08
2023-02-22T17:49:36.793Z,28.88
2023-02-22T17:51:05.977Z,32.60
2023-02-22T17:52:33.469Z,30.42
2023-02-22T17:53:57.822Z,36.80
2023-02-22T17:55:23.319Z,26.80
2023-02-22T17:56:51.602Z,27.80
2023-02-22T17:58:20.090Z,29.08
2023-02-22T17:59:48.317Z,30.95
2023-02-22T18:01:35.210Z,30.05
2023-02-22T18:03:01.166Z,25.13
2023-02-22T18:04:23.880Z,28.60
2023-02-22T18:05:51.012Z,28.92
2023-02-22T18:07:25.374Z,31.20
2023-02-22T18:08:59.224Z,31.98
2023-02-22T18:10:27.095Z,33.10
2023-02-22T18:11:51.214Z,29.67
2023-02-22T18:13:40.345Z,30.05
2023-02-22T18:15:22.517Z,31.80
2023-02-22T18:17:02.644Z,34.85
2023-02-22T18:18:36.327Z,32.95
2023-02-22T18:19:59.613Z,29.10
2023-02-22T18:21:27.020Z,33.90
2023-02-22T18:24:34.854Z,35.83
2023-02-22T18:26:10.823Z,30.30
2023-02-22T18:27:46.422Z,36.05
2023-02-22T18:29:12.569Z,31.95
2023-02-22T18:30:37.959Z,33.55
2023-02-22T18:32:21.229Z,35.97
2023-02-22T18:34:49.067Z,34.33
2023-02-22T18:36:23.156Z,37.72
2023-02-22T18:37:46.095Z,42.25
2023-02-22T18:39:19.926Z,38.67
2023-02-22T18:40:51.566Z,39.93
2023-02-22T18:42:15.533Z,42.20
2023-02-22T18:43:38.716Z,37.22
2023-02-22T18:45:05.592Z,37.58
2023-02-22T18:46:33.322Z,36.53
2023-02-22T18:48:05.641Z,39.47
2023-02-22T18:49:33.916Z,35.92
2023-02-22T18:51:39.552Z,38.03
2023-02-22T18:53:18.881Z,33.72
2023-02-22T18:54:42.955Z,37.92
2023-02-22T18:56:16.868Z,42.40
2023-02-22T18:57:45.942Z,39.95
2023-02-22T18:59:13.746Z,45.25
2023-02-22T19:00:38.411Z,35.90
2023-02-22T19:02:07.496Z,43.30
2023-02-22T19:03:32.613Z,35.85
2023-02-22T19:04:57.789Z,43.20
2023-02-22T19:06:30.884Z,43.10
2023-02-22T19:08:05.452Z,45.83
2023-02-22T19:09:31.898Z,44.30
2023-02-22T19:10:55.192Z,42.30
2023-02-22T19:12:46.749Z,45.40
2023-02-22T19:14:11.417Z,44.47
2023-02-22T19:15:34.597Z,48.47
2023-02-22T19:17:02.645Z,45.72
2023-02-22T19:18:26.741Z,44.63
2023-02-22T19:19:49.856Z,41.83
2023-02-22T19:21:16.343Z,42.30
2023-02-22T19:24:05.172Z,45.13
2023-02-22T19:27:55.348Z,41.08
2023-02-22T19:29:53.760Z,44.50
2023-02-22T19:31:22.279Z,47.63
2023-02-22T19:32:54.425Z,44.65
2023-02-22T19:34:25.210Z,38.13
2023-02-22T19:36:23.513Z,40.05
2023-02-22T19:38:17.134Z,37.15
2023-02-22T19:39:42.500Z,30.13
2023-02-22T19:41:28.954Z,34.30
2023-02-22T19:44:54.776Z,30.55
2023-02-22T19:46:34.723Z,38.03
2023-02-22T19:48:33.347Z,38.08
2023-02-22T19:50:11.629Z,31.13
2023-02-22T19:52:01.277Z,29.70
2023-02-22T19:53:27.979Z,27.48
2023-02-22T19:54:54.247Z,35.95
2023-02-22T19:56:31.449Z,43.50
2023-02-22T19:57:59.639Z,36.33
2023-02-22T19:59:42.416Z,35.03
2023-02-22T20:01:13.716Z,28.92
2023-02-22T20:02:39.635Z,33.72
2023-02-22T20:04:04.149Z,27.20
2023-02-22T20:05:30.801Z,38.15
2023-02-22T20:06:57.768Z,30.35
2023-02-22T20:08:21.883Z,33.13
2023-02-22T20:09:46.786Z,25.60
2023-02-22T20:11:13.294Z,30.10
2023-02-22T20:13:19.466Z,36.15
2023-02-22T20:14:43.401Z,28.23
2023-02-22T20:16:10.126Z,34.17
2023-02-22T20:17:41.787Z,32.60
2023-02-22T20:19:12.124Z,32.67
2023-02-22T20:20:38.206Z,35.20
2023-02-22T20:22:03.142Z,30.38
2023-02-22T20:23:28.396Z,34.78
2023-02-22T20:25:19.644Z,33.85
2023-02-22T20:26:50.966Z,34.63
2023-02-22T20:28:56.810Z,29.00
2023-02-22T20:30:19.846Z,28.88
2023-02-22T20:31:54.426Z,34.35
2023-02-22T20:33:26.166Z,30.63
2023-02-22T20:34:51.187Z,32.47
2023-02-22T20:36:48.742Z,35.80
2023-02-22T20:38:19.463Z,31.20
2023-02-22T20:39:45.040Z,35.15
2023-02-22T20:41:27.381Z,35.22
2023-02-22T20:43:16.976Z,36.05
2023-02-22T20:44:43.022Z,32.60
2023-02-22T20:46:08.251Z,28.33
2023-02-22T20:47:31.747Z,35.22
2023-02-22T20:49:22.364Z,33.47
2023-02-22T20:50:52.136Z,34.95
2023-02-22T20:52:24.378Z,33.85
2023-02-22T20:53:48.164Z,36.03
2023-02-22T20:55:38.728Z,29.92
2023-02-22T20:57:11.565Z,34.33
2023-02-22T20:58:36.129Z,31.77
2023-02-22T21:00:22.815Z,37.90
2023-02-22T21:02:06.739Z,31.67
2023-02-22T21:03:36.802Z,29.30
2023-02-22T21:05:06.141Z,30.88
2023-02-22T21:06:39.171Z,34.67
2023-02-22T21:08:05.021Z,31.95
2023-02-22T21:09:26.425Z,35.75
2023-02-22T21:10:50.228Z,31.33
2023-02-22T21:12:15.610Z,36.38
2023-02-22T21:13:37.166Z,37.17
2023-02-22T21:16:49.319Z,41.17
2023-02-22T21:18:12.684Z,39.13
2023-02-22T21:19:39.581Z,33.15
2023-02-22T21:21:10.585Z,37.20
2023-02-22T21:22:38.339Z,30.35
2023-02-22T21:24:18.199Z,35.90
2023-02-22T21:25:52.200Z,34.78
2023-02-22T21:27:30.891Z,42.75
2023-02-22T21:29:24.703Z,36.97
2023-02-22T21:31:51.201Z,36.30
2023-02-22T21:33:17.132Z,35.55
2023-02-22T21:34:45.033Z,34.78
2023-02-22T21:36:11.463Z,33.65
2023-02-22T21:37:37.132Z,37.47
2023-02-22T21:39:18.143Z,37.50
2023-02-22T21:40:44.766Z,33.28
2023-02-22T21:42:08.386Z,38.47
2023-02-22T21:43:29.633Z,40.65
2023-02-22T21:44:56.432Z,53.17
2023-02-22T21:46:21.591Z,37.60
2023-02-22T21:47:45.728Z,44.80
2023-02-22T21:49:08.958Z,39.20
2023-02-22T21:50:31.817Z,35.90
2023-02-22T21:51:54.332Z,36.65
2023-02-22T21:53:18.770Z,38.92
2023-02-22T21:54:55.427Z,34.95
2023-02-22T21:56:37.972Z,42.08
2023-02-22T21:58:23.754Z,32.33
2023-02-22T21:59:48.748Z,39.13
2023-02-22T22:01:17.991Z,40.08
2023-02-22T22:02:41.204Z,34.20
2023-02-22T22:04:09.822Z,35.83
2023-02-22T22:05:34.270Z,39.05
2023-02-22T22:06:58.282Z,35.85
2023-02-22T22:08:21.028Z,33.65
2023-02-22T22:09:45.736Z,43.78
2023-02-22T22:11:11.385Z,38.83
2023-02-22T22:12:40.134Z,39.28
2023-02-22T22:14:03.804Z,43.85
2023-02-22T22:15:36.991Z,46.95
2023-02-22T22:17:01.197Z,45.63
2023-02-22T22:18:22.402Z,41.28
2023-02-22T22:19:46.941Z,44.30
2023-02-22T22:21:18.524Z,42.83
2023-02-22T22:23:00.750Z,39.13
2023-02-22T22:24:26.235Z,42.85
2023-02-22T22:25:51.496Z,46.40
2023-02-22T22:27:16.560Z,39.22
2023-02-22T22:28:42.628Z,45.10
2023-02-22T22:30:06.046Z,41.65
2023-02-22T22:31:29.509Z,40.10
2023-02-22T22:32:55.429Z,34.88
2023-02-22T22:34:18.020Z,42.28
2023-02-22T22:35:42.330Z,36.67
2023-02-22T22:37:05.024Z,36.55
2023-02-22T22:38:26.885Z,42.17
2023-02-22T22:39:49.648Z,41.88
2023-02-22T22:41:14.549Z,47.85
2023-02-22T22:42:38.714Z,49.58
2023-02-22T22:44:01.305Z,42.15
2023-02-22T22:45:23.085Z,38.55
2023-02-22T22:47:05.112Z,42.40
2023-02-22T22:48:31.722Z,44.40
2023-02-22T22:50:01.658Z,40.05
2023-02-22T22:51:27.676Z,37.80
2023-02-22T22:52:58.836Z,42.63
2023-02-22T22:54:22.428Z,40.85
2023-02-22T22:55:45.135Z,40.95
2023-02-22T22:57:09.198Z,46.70
2023-02-22T22:58:42.200Z,48.95
2023-02-22T23:02:14.426Z,47.65
2023-02-22T23:03:39.748Z,46.33
2023-02-22T23:05:02.680Z,48.08
2023-02-22T23:08:43.552Z,43.28
2023-02-22T23:10:08.686Z,48.67
2023-02-22T23:11:37.962Z,41.50
2023-02-22T23:12:59.762Z,48.70
2023-02-22T23:15:48.233Z,46.28
2023-02-22T23:17:15.677Z,43.42
2023-02-22T23:18:43.724Z,46.40
2023-02-22T23:20:12.615Z,49.03
2023-02-22T23:21:38.596Z,44.45
2023-02-22T23:23:06.794Z,43.35
2023-02-22T23:24:31.812Z,42.05
2023-02-22T23:26:11.829Z,49.65
2023-02-22T23:27:35.265Z,49.55
2023-02-22T23:29:03.902Z,43.78
2023-02-22T23:30:38.795Z,43.92
2023-02-22T23:34:16.757Z,46.95
2023-02-22T23:35:42.711Z,44.95
2023-02-22T23:37:10.106Z,51.88
2023-02-22T23:38:36.761Z,47.63
2023-02-22T23:40:07.705Z,43.80
2023-02-22T23:41:35.818Z,44.63
2023-02-22T23:43:04.533Z,47.92
2023-02-22T23:44:46.492Z,50.58
2023-02-22T23:46:36.824Z,49.72
2023-02-22T23:48:03.359Z,44.83
2023-02-22T23:49:38.921Z,47.95
2023-02-22T23:51:14.600Z,48.45
2023-02-22T23:52:47.926Z,43.83
2023-02-22T23:54:37.106Z,41.58
2023-02-22T23:56:22.554Z,48.22
2023-02-22T23:58:23.610Z,40.83
2023-02-22T23:59:51.661Z,44.83
